Time;durP1;ratioP1;P1;durP2;ratioP2;P2;SDS_P1;SDS_P2;PMS_P1;PMS_P2;Temp;Humidity;BMP_temperature;BMP_pressure;BME280_temperature;BME280_humidity;BME280_pressure;Samples;Min_cycle;Max_cycle;Signal;HPM_P1;HPM_P2
2023/08/16 00:02:05;;;;;;;4.05;2.20;;;;;;;;;;5001866;28;20108;-77
2023/08/16 00:04:30;;;;;;;4.68;2.10;;;;;;;;;;5012986;28;20029;-76
2023/08/16 00:06:56;;;;;;;3.80;2.20;;;;;;;;;;5013635;28;20436;-76
2023/08/16 00:09:21;;;;;;;6.85;2.42;;;;;;;;;;4997578;28;20035;-76
2023/08/16 00:11:47;;;;;;;4.10;2.35;;;;;;;;;;4998212;28;20401;-77
2023/08/16 00:14:12;;;;;;;5.72;3.00;;;;;;;;;;5011317;28;20100;-76
2023/08/16 00:16:38;;;;;;;4.53;2.40;;;;;;;;;;5001976;28;20033;-77
2023/08/16 00:19:04;;;;;;;4.88;2.90;;;;;;;;;;5006631;28;20036;-77
2023/08/16 00:21:29;;;;;;;5.32;2.63;;;;;;;;;;5008920;28;20033;-76
2023/08/16 00:23:55;;;;;;;4.45;2.90;;;;;;;;;;5001735;28;20034;-77
2023/08/16 00:26:20;;;;;;;4.18;2.88;;;;;;;;;;5005389;28;20083;-77
2023/08/16 00:28:47;;;;;;;4.57;2.72;;;;;;;;;;5008789;28;20025;-77
2023/08/16 00:31:13;;;;;;;5.20;2.92;;;;;;;;;;5007500;28;20246;-77
2023/08/16 00:33:38;;;;;;;5.72;2.92;;;;;;;;;;5007928;28;20038;-77
2023/08/16 00:36:04;;;;;;;4.18;2.65;;;;;;;;;;5008180;28;20037;-77
2023/08/16 00:38:29;;;;;;;5.63;2.60;;;;;;;;;;5006117;28;20076;-76
2023/08/16 00:40:55;;;;;;;4.68;3.17;;;;;;;;;;5008354;28;20520;-78
2023/08/16 00:43:20;;;;;;;5.70;2.85;;;;;;;;;;5009409;28;20037;-76
2023/08/16 00:45:48;;;;;;;4.35;3.00;;;;;;;;;;5025028;28;20030;-77
2023/08/16 00:48:13;;;;;;;6.00;3.10;;;;;;;;;;5004893;28;20025;-77
2023/08/16 00:50:39;;;;;;;5.80;3.00;;;;;;;;;;5001383;28;20026;-80
2023/08/16 00:53:06;;;;;;;5.28;2.80;;;;;;;;;;5007018;28;20041;-77
2023/08/16 00:55:33;;;;;;;4.40;2.85;;;;;;;;;;5010389;28;20389;-76
2023/08/16 00:57:59;;;;;;;4.38;3.00;;;;;;;;;;5005572;28;20025;-76
2023/08/16 01:00:24;;;;;;;5.18;3.80;;;;;;;;;;5005536;28;20036;-77
2023/08/16 01:02:50;;;;;;;5.78;3.30;;;;;;;;;;5008213;28;20033;-78
2023/08/16 01:05:16;;;;;;;5.47;3.30;;;;;;;;;;5004644;28;20116;-77
2023/08/16 01:07:41;;;;;;;5.57;3.33;;;;;;;;;;5006247;28;20097;-78
2023/08/16 01:10:08;;;;;;;4.47;2.92;;;;;;;;;;5011877;28;20459;-77
2023/08/16 01:13:04;;;;;;;6.78;4.00;;;;;;;;;;5018334;28;20025;-77
2023/08/16 01:15:38;;;;;;;5.72;3.28;;;;;;;;;;5006887;28;20025;-76
2023/08/16 01:18:04;;;;;;;6.80;3.20;;;;;;;;;;5006026;28;20018;-77
2023/08/16 01:20:31;;;;;;;5.30;3.17;;;;;;;;;;5009021;28;20147;-76
2023/08/16 01:23:08;;;;;;;4.97;3.60;;;;;;;;;;5006510;28;20518;-76
2023/08/16 01:25:48;;;;;;;5.30;3.70;;;;;;;;;;5001805;28;20022;-76
2023/08/16 01:28:14;;;;;;;5.95;3.60;;;;;;;;;;5006596;28;20030;-76
2023/08/16 01:30:41;;;;;;;6.53;3.10;;;;;;;;;;5005818;28;20117;-76
2023/08/16 01:33:07;;;;;;;4.45;3.30;;;;;;;;;;5005316;28;20034;-78
2023/08/16 01:35:34;;;;;;;4.72;3.28;;;;;;;;;;5001343;28;20386;-75
2023/08/16 01:38:00;;;;;;;4.70;3.38;;;;;;;;;;5001691;28;20229;-76
2023/08/16 01:40:29;;;;;;;3.72;2.90;;;;;;;;;;5008159;28;20025;-77
2023/08/16 01:42:56;;;;;;;5.38;3.10;;;;;;;;;;5029775;28;20041;-76
2023/08/16 01:45:22;;;;;;;4.82;3.55;;;;;;;;;;5007220;28;20080;-76
2023/08/16 01:47:49;;;;;;;7.80;4.40;;;;;;;;;;5012003;28;20026;-76
2023/08/16 01:50:15;;;;;;;6.03;3.40;;;;;;;;;;5002409;28;20025;-76
2023/08/16 01:52:41;;;;;;;5.22;3.63;;;;;;;;;;5021483;28;20494;-75
2023/08/16 01:55:07;;;;;;;5.30;3.25;;;;;;;;;;5008943;28;20207;-76
2023/08/16 01:57:32;;;;;;;5.78;3.55;;;;;;;;;;5009902;28;20530;-77
2023/08/16 01:59:57;;;;;;;4.60;2.63;;;;;;;;;;5006902;28;20044;-76
2023/08/16 02:02:24;;;;;;;5.10;3.05;;;;;;;;;;5023270;28;20022;-77
2023/08/16 02:04:49;;;;;;;5.72;3.05;;;;;;;;;;5021696;28;20048;-76
2023/08/16 02:07:15;;;;;;;6.25;3.25;;;;;;;;;;5007877;28;20026;-75
2023/08/16 02:09:40;;;;;;;6.07;3.30;;;;;;;;;;5007424;28;20510;-76
2023/08/16 02:12:06;;;;;;;4.88;3.20;;;;;;;;;;5008609;28;20037;-85
2023/08/16 02:14:32;;;;;;;4.55;2.50;;;;;;;;;;5007302;28;20026;-83
2023/08/16 02:16:57;;;;;;;4.82;3.20;;;;;;;;;;5004242;28;20096;-84
2023/08/16 02:19:22;;;;;;;4.50;2.75;;;;;;;;;;5002600;28;20018;-84
2023/08/16 02:21:48;;;;;;;4.88;2.78;;;;;;;;;;5002751;28;20080;-84
2023/08/16 02:24:13;;;;;;;4.22;2.90;;;;;;;;;;5003266;28;20034;-83
2023/08/16 02:26:38;;;;;;;6.18;3.40;;;;;;;;;;5010850;28;20026;-84
2023/08/16 02:29:04;;;;;;;8.18;3.40;;;;;;;;;;5002664;28;20061;-84
2023/08/16 02:31:29;;;;;;;7.07;3.05;;;;;;;;;;5008296;28;20033;-77
2023/08/16 02:33:55;;;;;;;5.82;3.10;;;;;;;;;;5024121;28;20034;-76
2023/08/16 02:36:21;;;;;;;6.85;2.80;;;;;;;;;;5010357;28;20032;-77
2023/08/16 02:38:46;;;;;;;5.65;2.80;;;;;;;;;;5010558;28;20139;-76
2023/08/16 02:41:12;;;;;;;4.63;2.88;;;;;;;;;;5009002;28;20113;-76
2023/08/16 02:43:37;;;;;;;4.05;2.65;;;;;;;;;;4999559;28;20034;-76
2023/08/16 02:46:03;;;;;;;4.00;2.38;;;;;;;;;;5009877;28;20464;-76
2023/08/16 02:48:28;;;;;;;3.95;2.90;;;;;;;;;;5008860;28;20022;-76
2023/08/16 02:50:53;;;;;;;4.20;2.80;;;;;;;;;;5003004;28;20029;-76
2023/08/16 02:53:19;;;;;;;4.28;2.97;;;;;;;;;;5016861;28;20217;-77
2023/08/16 02:55:44;;;;;;;4.80;3.15;;;;;;;;;;5006861;28;20037;-76
2023/08/16 02:58:10;;;;;;;4.22;2.90;;;;;;;;;;5008143;28;20045;-76
2023/08/16 03:00:35;;;;;;;4.20;2.92;;;;;;;;;;5009764;28;20033;-77
2023/08/16 03:03:00;;;;;;;6.07;3.13;;;;;;;;;;5006795;28;20029;-76
2023/08/16 03:05:26;;;;;;;5.53;3.30;;;;;;;;;;5004147;28;20026;-76
2023/08/16 03:07:52;;;;;;;4.13;2.75;;;;;;;;;;5010314;28;20165;-78
2023/08/16 03:10:18;;;;;;;3.97;2.88;;;;;;;;;;5004194;28;20033;-77
2023/08/16 03:12:43;;;;;;;4.97;2.88;;;;;;;;;;5002659;28;20088;-79
2023/08/16 03:15:09;;;;;;;4.40;2.65;;;;;;;;;;5009932;28;20432;-75
2023/08/16 03:17:34;;;;;;;5.20;3.40;;;;;;;;;;5012585;28;20018;-76
2023/08/16 03:19:59;;;;;;;5.38;2.70;;;;;;;;;;5007873;28;20036;-76
2023/08/16 03:22:25;;;;;;;4.75;2.97;;;;;;;;;;5003755;28;20019;-76
2023/08/16 03:24:50;;;;;;;6.47;3.22;;;;;;;;;;5010678;28;20048;-77
2023/08/16 03:27:16;;;;;;;6.22;3.50;;;;;;;;;;5009939;28;20026;-77
2023/08/16 03:29:41;;;;;;;5.25;3.17;;;;;;;;;;5006659;28;20404;-77
2023/08/16 03:32:07;;;;;;;5.95;3.05;;;;;;;;;;5031014;28;20028;-76
2023/08/16 03:34:32;;;;;;;6.20;3.00;;;;;;;;;;5011274;28;20441;-76
2023/08/16 03:36:57;;;;;;;4.75;2.90;;;;;;;;;;5006109;28;20034;-77
2023/08/16 03:39:23;;;;;;;4.85;3.30;;;;;;;;;;5003999;28;20075;-77
2023/08/16 03:41:49;;;;;;;5.05;2.60;;;;;;;;;;5007657;28;20072;-77
2023/08/16 03:44:14;;;;;;;5.18;2.80;;;;;;;;;;5008619;28;20112;-77
2023/08/16 03:46:40;;;;;;;7.30;3.15;;;;;;;;;;5020504;28;20018;-77
2023/08/16 03:49:05;;;;;;;5.78;3.30;;;;;;;;;;5021466;28;20034;-76
2023/08/16 03:51:31;;;;;;;6.68;3.15;;;;;;;;;;5008220;28;20060;-76
2023/08/16 03:53:57;;;;;;;7.35;3.78;;;;;;;;;;5009028;28;20032;-76
2023/08/16 03:56:22;;;;;;;5.55;3.08;;;;;;;;;;5013550;28;20018;-76
2023/08/16 03:58:47;;;;;;;5.28;3.22;;;;;;;;;;5011402;28;21421;-77
2023/08/16 04:01:13;;;;;;;4.47;2.92;;;;;;;;;;5014698;28;20517;-77
2023/08/16 04:03:38;;;;;;;4.65;3.15;;;;;;;;;;5012218;28;20048;-77
2023/08/16 04:06:10;;;;;;;5.28;3.15;;;;;;;;;;5011059;28;20033;-77
2023/08/16 04:08:36;;;;;;;4.28;2.92;;;;;;;;;;5010543;28;20497;-76
2023/08/16 04:11:01;;;;;;;5.57;2.95;;;;;;;;;;5011405;28;20025;-76
2023/08/16 04:13:27;;;;;;;3.92;3.00;;;;;;;;;;5007127;28;20024;-79
2023/08/16 04:15:52;;;;;;;3.85;2.80;;;;;;;;;;5006690;28;20028;-76
2023/08/16 04:18:17;;;;;;;5.47;2.90;;;;;;;;;;5015521;28;20508;-76
2023/08/16 04:20:43;;;;;;;4.32;2.85;;;;;;;;;;5023626;28;20030;-76
2023/08/16 04:23:08;;;;;;;4.50;3.03;;;;;;;;;;5003446;28;20068;-78
2023/08/16 04:25:34;;;;;;;4.25;3.15;;;;;;;;;;5021654;28;20083;-78
2023/08/16 04:28:00;;;;;;;5.68;2.97;;;;;;;;;;5027775;28;20393;-77
2023/08/16 04:30:25;;;;;;;6.05;3.47;;;;;;;;;;5002390;28;20393;-76
2023/08/16 04:32:50;;;;;;;4.35;2.80;;;;;;;;;;5010983;28;20827;-84
2023/08/16 04:35:16;;;;;;;5.00;2.78;;;;;;;;;;5009169;28;20026;-85
2023/08/16 04:37:41;;;;;;;5.45;2.80;;;;;;;;;;5021471;28;20021;-84
2023/08/16 04:40:07;;;;;;;5.88;2.80;;;;;;;;;;5007131;28;20040;-84
2023/08/16 04:42:34;;;;;;;5.30;2.85;;;;;;;;;;5008613;28;20038;-84
2023/08/16 04:45:01;;;;;;;6.00;3.15;;;;;;;;;;5002195;28;20029;-85
2023/08/16 04:47:26;;;;;;;4.53;3.08;;;;;;;;;;5005917;28;20377;-84
2023/08/16 04:49:51;;;;;;;6.05;2.78;;;;;;;;;;5004977;28;20029;-84
2023/08/16 04:52:17;;;;;;;3.88;2.78;;;;;;;;;;5005777;28;20117;-78
2023/08/16 04:54:42;;;;;;;3.85;2.70;;;;;;;;;;5005630;28;20052;-78
2023/08/16 04:57:07;;;;;;;3.30;2.50;;;;;;;;;;5009464;28;20018;-76
2023/08/16 04:59:33;;;;;;;3.83;2.70;;;;;;;;;;4999550;28;20048;-77
2023/08/16 05:01:58;;;;;;;4.38;3.10;;;;;;;;;;5022785;28;20030;-77
2023/08/16 05:04:24;;;;;;;5.20;2.78;;;;;;;;;;5011017;28;20164;-77
2023/08/16 05:06:49;;;;;;;5.03;2.70;;;;;;;;;;5009845;28;20386;-77
2023/08/16 05:09:14;;;;;;;4.28;2.50;;;;;;;;;;5004925;28;20037;-77
2023/08/16 05:11:40;;;;;;;4.32;2.92;;;;;;;;;;5004863;28;20103;-76
2023/08/16 05:14:05;;;;;;;3.88;2.50;;;;;;;;;;5003479;28;20022;-77
2023/08/16 05:16:30;;;;;;;6.72;2.80;;;;;;;;;;5011941;28;20544;-76
2023/08/16 05:18:57;;;;;;;4.65;2.20;;;;;;;;;;5011953;28;20049;-77
2023/08/16 05:21:23;;;;;;;5.55;2.72;;;;;;;;;;5003559;28;20026;-77
2023/08/16 05:23:48;;;;;;;3.83;2.63;;;;;;;;;;5003830;28;20044;-77
2023/08/16 05:26:14;;;;;;;4.68;2.30;;;;;;;;;;5004118;28;20026;-76
2023/08/16 05:28:39;;;;;;;5.55;2.88;;;;;;;;;;5003839;28;20025;-76
2023/08/16 05:31:12;;;;;;;3.53;2.28;;;;;;;;;;5018411;28;20034;-77
2023/08/16 05:33:38;;;;;;;4.95;2.60;;;;;;;;;;5001686;28;20030;-78
2023/08/16 05:36:04;;;;;;;5.25;2.45;;;;;;;;;;5021574;28;20579;-76
2023/08/16 05:38:29;;;;;;;4.15;2.20;;;;;;;;;;5003357;28;20501;-76
2023/08/16 05:40:55;;;;;;;5.93;2.60;;;;;;;;;;5004276;28;20038;-77
2023/08/16 05:43:21;;;;;;;6.35;2.70;;;;;;;;;;4999798;28;20120;-84
2023/08/16 05:45:46;;;;;;;4.50;2.70;;;;;;;;;;5005436;28;20119;-83
2023/08/16 05:48:12;;;;;;;3.88;2.45;;;;;;;;;;5005457;28;20490;-82
2023/08/16 05:50:37;;;;;;;6.50;3.22;;;;;;;;;;5021065;28;20033;-83
2023/08/16 05:53:03;;;;;;;5.82;2.65;;;;;;;;;;4999615;28;20159;-84
2023/08/16 05:55:29;;;;;;;4.97;2.70;;;;;;;;;;5005859;28;20038;-83
2023/08/16 05:57:54;;;;;;;5.53;3.20;;;;;;;;;;5003976;28;20389;-84
2023/08/16 06:00:19;;;;;;;4.32;2.80;;;;;;;;;;4999552;28;21030;-84
2023/08/16 06:02:46;;;;;;;4.80;2.22;;;;;;;;;;5000468;28;20045;-84
2023/08/16 06:05:11;;;;;;;5.10;2.60;;;;;;;;;;5012419;28;20051;-83
2023/08/16 06:07:36;;;;;;;3.65;2.40;;;;;;;;;;5000759;28;20026;-80
2023/08/16 06:10:03;;;;;;;4.20;2.30;;;;;;;;;;5001368;28;20413;-83
2023/08/16 06:12:29;;;;;;;3.90;2.13;;;;;;;;;;5000605;28;20030;-80
2023/08/16 06:14:54;;;;;;;4.28;2.05;;;;;;;;;;4995036;28;20030;-83
2023/08/16 06:17:19;;;;;;;4.47;2.30;;;;;;;;;;4996652;28;20038;-83
2023/08/16 06:19:45;;;;;;;4.18;2.40;;;;;;;;;;4999837;28;20083;-80
2023/08/16 06:22:10;;;;;;;5.40;2.95;;;;;;;;;;4993032;28;20040;-83
2023/08/16 06:24:36;;;;;;;4.63;2.75;;;;;;;;;;5008438;28;20026;-83
2023/08/16 06:27:01;;;;;;;4.47;2.80;;;;;;;;;;4999707;28;20065;-82
2023/08/16 06:29:26;;;;;;;5.00;2.55;;;;;;;;;;5005060;28;20022;-83
2023/08/16 06:31:54;;;;;;;6.15;2.90;;;;;;;;;;5010328;28;20425;-83
2023/08/16 06:34:20;;;;;;;5.35;3.22;;;;;;;;;;5024436;28;20061;-84
2023/08/16 06:36:46;;;;;;;3.70;2.30;;;;;;;;;;5020121;28;20033;-83
2023/08/16 06:39:12;;;;;;;6.07;3.22;;;;;;;;;;5001586;28;20018;-81
2023/08/16 06:41:38;;;;;;;5.03;2.60;;;;;;;;;;4997937;28;20381;-83
2023/08/16 06:44:03;;;;;;;5.82;2.78;;;;;;;;;;5005829;28;20026;-84
2023/08/16 06:46:29;;;;;;;5.95;2.60;;;;;;;;;;5021446;28;20053;-82
2023/08/16 06:48:54;;;;;;;4.32;2.70;;;;;;;;;;5010148;28;20037;-83
2023/08/16 06:51:19;;;;;;;5.78;2.95;;;;;;;;;;5005899;28;20029;-79
2023/08/16 06:53:45;;;;;;;5.03;3.10;;;;;;;;;;5000762;28;20025;-82
2023/08/16 06:56:11;;;;;;;4.35;3.13;;;;;;;;;;5004926;28;20080;-84
2023/08/16 06:58:37;;;;;;;6.10;3.05;;;;;;;;;;5013558;28;20473;-84
2023/08/16 07:01:03;;;;;;;4.10;2.40;;;;;;;;;;5021244;28;20042;-83
2023/08/16 07:03:29;;;;;;;6.60;2.88;;;;;;;;;;5010624;28;20080;-84
2023/08/16 07:05:54;;;;;;;3.90;2.30;;;;;;;;;;5006446;28;20077;-84
2023/08/16 07:08:20;;;;;;;7.15;3.40;;;;;;;;;;5023349;28;20029;-84
2023/08/16 07:10:46;;;;;;;7.25;3.55;;;;;;;;;;5012036;28;20022;-84
2023/08/16 07:13:12;;;;;;;5.53;3.00;;;;;;;;;;5008326;28;20393;-84
2023/08/16 07:15:37;;;;;;;6.40;3.03;;;;;;;;;;5010049;28;20030;-84
2023/08/16 07:18:03;;;;;;;7.63;4.10;;;;;;;;;;5009988;28;20058;-84
2023/08/16 07:20:28;;;;;;;5.93;3.30;;;;;;;;;;5006946;28;20096;-82
2023/08/16 07:22:53;;;;;;;6.95;3.10;;;;;;;;;;4995954;28;20032;-84
2023/08/16 07:25:19;;;;;;;4.78;3.15;;;;;;;;;;5006865;28;20029;-84
2023/08/16 07:27:44;;;;;;;5.70;3.05;;;;;;;;;;5014949;28;20136;-83
2023/08/16 07:30:10;;;;;;;5.15;3.28;;;;;;;;;;5016445;28;20061;-85
2023/08/16 07:32:36;;;;;;;6.43;3.20;;;;;;;;;;5006777;28;20026;-83
2023/08/16 07:35:03;;;;;;;5.38;3.13;;;;;;;;;;5008365;28;20029;-85
2023/08/16 07:37:31;;;;;;;6.40;3.35;;;;;;;;;;5015192;28;20025;-83
2023/08/16 07:39:58;;;;;;;7.07;3.17;;;;;;;;;;5002975;28;20030;-84
2023/08/16 07:42:24;;;;;;;5.22;2.65;;;;;;;;;;5027001;28;20484;-85
2023/08/16 07:44:49;;;;;;;4.60;2.58;;;;;;;;;;5006597;28;20037;-83
2023/08/16 07:47:15;;;;;;;5.10;3.00;;;;;;;;;;5018617;28;20065;-85
2023/08/16 07:49:41;;;;;;;4.32;2.50;;;;;;;;;;5007895;28;20026;-85
2023/08/16 07:52:07;;;;;;;5.93;2.88;;;;;;;;;;5005397;28;20502;-82
2023/08/16 07:54:32;;;;;;;6.50;2.63;;;;;;;;;;5001786;28;20108;-80
2023/08/16 07:56:57;;;;;;;4.13;2.50;;;;;;;;;;5013979;28;20121;-84
2023/08/16 07:59:23;;;;;;;5.50;2.60;;;;;;;;;;5016310;28;20030;-79
2023/08/16 08:01:49;;;;;;;5.20;2.08;;;;;;;;;;5003250;28;20033;-77
2023/08/16 08:04:14;;;;;;;4.85;2.00;;;;;;;;;;5003398;28;20033;-77
2023/08/16 08:06:40;;;;;;;3.85;1.75;;;;;;;;;;4998879;28;20647;-78
2023/08/16 08:09:05;;;;;;;4.03;1.83;;;;;;;;;;5015146;28;20524;-76
2023/08/16 08:11:30;;;;;;;3.47;1.90;;;;;;;;;;5004698;28;20129;-78
2023/08/16 08:13:59;;;;;;;4.70;1.80;;;;;;;;;;5017788;28;20041;-76
2023/08/16 08:16:25;;;;;;;5.97;1.77;;;;;;;;;;4996429;28;20083;-77
2023/08/16 08:18:50;;;;;;;2.90;1.20;;;;;;;;;;5018577;28;20033;-77
2023/08/16 08:21:15;;;;;;;3.30;1.45;;;;;;;;;;5005844;28;20838;-77
2023/08/16 08:23:41;;;;;;;4.95;1.83;;;;;;;;;;4994016;28;20044;-79
2023/08/16 08:26:06;;;;;;;3.63;1.70;;;;;;;;;;4998548;28;20424;-77
2023/08/16 08:28:32;;;;;;;3.60;1.40;;;;;;;;;;5015650;28;20031;-78
2023/08/16 08:31:02;;;;;;;4.47;1.40;;;;;;;;;;5015420;28;20091;-77
2023/08/16 08:33:28;;;;;;;3.05;1.38;;;;;;;;;;5014657;28;20080;-77
2023/08/16 08:35:54;;;;;;;3.55;1.40;;;;;;;;;;5015949;28;20033;-78
2023/08/16 08:38:19;;;;;;;3.95;1.30;;;;;;;;;;5000296;28;20026;-78
2023/08/16 08:40:44;;;;;;;3.47;1.30;;;;;;;;;;4999954;28;20040;-77
2023/08/16 08:43:14;;;;;;;4.32;1.42;;;;;;;;;;4998702;28;20042;-77
2023/08/16 08:45:42;;;;;;;2.60;1.50;;;;;;;;;;4997253;28;20026;-77
2023/08/16 08:48:08;;;;;;;3.33;1.55;;;;;;;;;;5016366;28;20033;-79
2023/08/16 08:50:37;;;;;;;2.45;1.20;;;;;;;;;;5007564;28;20033;-78
2023/08/16 08:53:02;;;;;;;3.25;1.45;;;;;;;;;;5011672;28;20644;-77
2023/08/16 08:55:32;;;;;;;3.17;1.40;;;;;;;;;;5002142;28;20029;-77
2023/08/16 08:58:01;;;;;;;3.63;1.25;;;;;;;;;;4995226;28;20026;-76
2023/08/16 09:00:29;;;;;;;6.30;1.85;;;;;;;;;;4996849;28;20057;-78
2023/08/16 09:02:56;;;;;;;2.95;1.50;;;;;;;;;;4999327;28;20038;-78
2023/08/16 09:05:22;;;;;;;4.45;1.80;;;;;;;;;;4996685;28;20464;-77
2023/08/16 09:07:48;;;;;;;3.38;1.45;;;;;;;;;;4992477;28;20034;-77
2023/08/16 09:10:15;;;;;;;3.17;1.50;;;;;;;;;;5004887;28;20053;-77
2023/08/16 09:12:41;;;;;;;3.38;1.20;;;;;;;;;;5005072;28;20054;-86
2023/08/16 09:15:07;;;;;;;3.17;1.38;;;;;;;;;;5007633;28;20111;-85
2023/08/16 09:17:34;;;;;;;3.63;1.20;;;;;;;;;;5001948;28;20611;-84
2023/08/16 09:20:05;;;;;;;3.00;1.20;;;;;;;;;;5009407;28;20034;-82
2023/08/16 09:22:31;;;;;;;3.97;1.40;;;;;;;;;;5003809;28;20370;-82
2023/08/16 09:24:58;;;;;;;2.60;1.20;;;;;;;;;;4999390;28;20393;-80
2023/08/16 09:27:25;;;;;;;4.32;1.48;;;;;;;;;;4996879;28;20068;-86
2023/08/16 09:29:54;;;;;;;3.53;1.30;;;;;;;;;;4998125;28;20486;-83
2023/08/16 09:32:21;;;;;;;4.43;1.50;;;;;;;;;;4996944;28;20038;-76
2023/08/16 09:34:47;;;;;;;3.92;1.33;;;;;;;;;;4996008;28;20032;-78
2023/08/16 09:37:13;;;;;;;4.88;1.60;;;;;;;;;;5002504;28;20041;-78
2023/08/16 09:39:43;;;;;;;6.13;1.73;;;;;;;;;;4998499;28;20030;-77
2023/08/16 09:42:10;;;;;;;5.07;1.73;;;;;;;;;;4999479;28;20034;-78
2023/08/16 09:44:36;;;;;;;3.90;1.40;;;;;;;;;;4998829;28;20405;-78
2023/08/16 09:47:14;;;;;;;3.03;1.40;;;;;;;;;;5002547;28;21413;-77
2023/08/16 09:49:40;;;;;;;5.35;1.67;;;;;;;;;;5003152;28;20033;-77
2023/08/16 09:52:12;;;;;;;2.53;1.30;;;;;;;;;;5001407;28;20034;-76
2023/08/16 09:54:38;;;;;;;3.75;1.80;;;;;;;;;;4997325;28;20019;-77
2023/08/16 09:57:04;;;;;;;5.32;2.00;;;;;;;;;;5003388;28;20393;-77
2023/08/16 09:59:31;;;;;;;4.30;1.80;;;;;;;;;;5002584;28;20036;-77
2023/08/16 10:01:58;;;;;;;3.17;1.73;;;;;;;;;;5011602;28;20035;-77
2023/08/16 10:04:25;;;;;;;5.43;1.70;;;;;;;;;;4998777;28;20030;-77
2023/08/16 10:06:50;;;;;;;5.05;2.00;;;;;;;;;;4999085;28;20029;-79
2023/08/16 10:09:17;;;;;;;3.97;1.80;;;;;;;;;;5019096;28;20375;-78
2023/08/16 10:11:44;;;;;;;4.72;1.70;;;;;;;;;;5002452;28;20025;-77
2023/08/16 10:14:10;;;;;;;2.53;1.30;;;;;;;;;;5001718;28;20551;-76
2023/08/16 10:16:36;;;;;;;2.92;1.67;;;;;;;;;;5004831;28;20029;-78
2023/08/16 10:19:03;;;;;;;3.75;1.80;;;;;;;;;;5025690;28;20034;-77
2023/08/16 10:21:31;;;;;;;3.40;1.77;;;;;;;;;;5001872;28;20029;-80
2023/08/16 10:23:56;;;;;;;6.30;2.35;;;;;;;;;;5001988;28;20129;-85
2023/08/16 10:26:24;;;;;;;5.00;2.15;;;;;;;;;;5016007;28;20129;-81
2023/08/16 10:28:54;;;;;;;5.43;1.98;;;;;;;;;;5008604;28;20029;-80
2023/08/16 10:31:24;;;;;;;3.53;1.90;;;;;;;;;;4998473;28;20498;-86
2023/08/16 10:33:53;;;;;;;2.38;1.60;;;;;;;;;;5004234;28;20386;-86
2023/08/16 10:36:19;;;;;;;4.97;2.15;;;;;;;;;;5002536;28;20030;-85
2023/08/16 10:38:56;;;;;;;3.85;1.75;;;;;;;;;;5007419;28;20033;-81
2023/08/16 10:41:22;;;;;;;4.82;2.03;;;;;;;;;;5008773;28;20403;-85
2023/08/16 10:43:50;;;;;;;5.55;2.10;;;;;;;;;;5002713;28;20037;-84
2023/08/16 10:46:31;;;;;;;3.75;1.83;;;;;;;;;;5004185;28;20034;-83
2023/08/16 10:49:01;;;;;;;3.97;1.83;;;;;;;;;;5015836;28;20129;-84
2023/08/16 10:51:27;;;;;;;5.22;2.30;;;;;;;;;;5017369;28;20107;-84
2023/08/16 10:53:56;;;;;;;3.70;1.85;;;;;;;;;;5006608;28;20879;-85
2023/08/16 10:56:22;;;;;;;3.70;1.80;;;;;;;;;;5025613;28;20045;-85
2023/08/16 10:58:50;;;;;;;4.00;2.08;;;;;;;;;;5011297;28;20018;-86
2023/08/16 11:01:16;;;;;;;5.00;2.30;;;;;;;;;;5007678;28;20038;-84
2023/08/16 11:03:43;;;;;;;5.97;2.42;;;;;;;;;;5027441;28;20112;-86
2023/08/16 11:06:13;;;;;;;5.22;2.30;;;;;;;;;;5009840;28;20076;-86
2023/08/16 11:08:44;;;;;;;6.00;2.30;;;;;;;;;;5005398;28;20033;-85
2023/08/16 11:11:13;;;;;;;3.72;2.20;;;;;;;;;;5007396;28;20037;-83
2023/08/16 11:13:42;;;;;;;4.63;2.58;;;;;;;;;;5012934;28;20030;-86
2023/08/16 11:16:09;;;;;;;4.68;2.38;;;;;;;;;;5026680;28;20034;-81
2023/08/16 11:18:35;;;;;;;4.90;2.60;;;;;;;;;;5010423;28;20367;-83
2023/08/16 11:21:03;;;;;;;6.70;2.40;;;;;;;;;;5001422;28;20034;-85
2023/08/16 11:23:39;;;;;;;6.63;2.20;;;;;;;;;;4996079;28;20409;-85
2023/08/16 11:26:07;;;;;;;5.38;2.22;;;;;;;;;;5015329;28;20026;-85
2023/08/16 11:28:33;;;;;;;5.90;2.35;;;;;;;;;;5007011;28;20077;-86
2023/08/16 11:31:01;;;;;;;4.50;2.20;;;;;;;;;;5005477;28;20030;-85
2023/08/16 11:33:36;;;;;;;5.95;2.05;;;;;;;;;;5013490;28;20030;-85
2023/08/16 11:36:04;;;;;;;4.82;1.85;;;;;;;;;;5028359;28;20040;-82
2023/08/16 11:38:29;;;;;;;6.00;2.00;;;;;;;;;;5009567;28;20071;-85
2023/08/16 11:40:55;;;;;;;5.03;2.20;;;;;;;;;;5004095;28;20038;-86
2023/08/16 11:43:33;;;;;;;4.80;1.83;;;;;;;;;;5007730;28;20304;-85
2023/08/16 11:46:01;;;;;;;4.88;1.90;;;;;;;;;;5012521;28;20068;-83
2023/08/16 11:48:28;;;;;;;3.47;1.90;;;;;;;;;;5009232;28;20037;-85
2023/08/16 11:50:54;;;;;;;3.55;1.92;;;;;;;;;;4999467;28;20351;-86
2023/08/16 11:53:21;;;;;;;4.45;1.98;;;;;;;;;;5004923;28;20045;-77
2023/08/16 11:55:59;;;;;;;4.55;1.75;;;;;;;;;;5011259;28;20465;-78
2023/08/16 11:58:25;;;;;;;3.88;1.50;;;;;;;;;;5006471;28;20049;-77
2023/08/16 12:00:51;;;;;;;3.38;1.50;;;;;;;;;;5008478;28;20041;-79
2023/08/16 12:03:17;;;;;;;5.25;2.00;;;;;;;;;;5009781;28;20632;-76
2023/08/16 12:05:46;;;;;;;3.47;1.65;;;;;;;;;;5009422;28;20405;-77
2023/08/16 12:08:12;;;;;;;3.53;1.60;;;;;;;;;;5003095;28;20084;-77
2023/08/16 12:10:39;;;;;;;3.97;1.80;;;;;;;;;;5014027;28;20474;-77
2023/08/16 12:13:14;;;;;;;3.50;1.60;;;;;;;;;;5010537;28;20026;-76
2023/08/16 12:15:41;;;;;;;7.13;1.88;;;;;;;;;;5006900;28;20025;-77
2023/08/16 12:18:07;;;;;;;4.40;1.80;;;;;;;;;;5008398;28;20017;-77
2023/08/16 12:20:32;;;;;;;4.45;1.50;;;;;;;;;;5001497;28;20029;-77
2023/08/16 12:22:58;;;;;;;3.65;1.60;;;;;;;;;;5002274;28;20496;-78
2023/08/16 12:25:24;;;;;;;4.13;1.65;;;;;;;;;;5001070;28;20034;-77
2023/08/16 12:27:49;;;;;;;4.30;1.70;;;;;;;;;;5004152;28;20374;-76
2023/08/16 12:30:15;;;;;;;3.95;1.63;;;;;;;;;;5007678;28;20575;-78
2023/08/16 12:32:40;;;;;;;5.85;1.70;;;;;;;;;;5000776;28;20402;-77
2023/08/16 12:35:06;;;;;;;4.65;2.33;;;;;;;;;;5008231;28;20025;-77
2023/08/16 12:37:32;;;;;;;3.30;1.90;;;;;;;;;;5012319;28;20033;-77
2023/08/16 12:39:57;;;;;;;4.38;1.50;;;;;;;;;;5011869;28;20049;-78
2023/08/16 12:42:23;;;;;;;4.18;1.60;;;;;;;;;;5019921;28;20148;-86
2023/08/16 12:44:48;;;;;;;3.05;1.30;;;;;;;;;;5004386;28;20069;-85
2023/08/16 12:47:14;;;;;;;3.22;1.88;;;;;;;;;;5004181;28;20032;-87
2023/08/16 12:49:39;;;;;;;3.30;1.58;;;;;;;;;;5006519;28;20061;-83
2023/08/16 12:52:05;;;;;;;4.35;1.80;;;;;;;;;;5005378;28;20084;-85
2023/08/16 12:54:31;;;;;;;3.20;1.35;;;;;;;;;;5004928;28;20025;-85
2023/08/16 12:56:56;;;;;;;4.35;1.50;;;;;;;;;;5010187;28;20073;-85
2023/08/16 12:59:21;;;;;;;3.67;1.52;;;;;;;;;;5005863;28;20053;-85
2023/08/16 13:01:47;;;;;;;5.00;1.60;;;;;;;;;;5009344;28;20040;-84
2023/08/16 13:04:13;;;;;;;3.38;1.45;;;;;;;;;;5015845;28;20093;-86
2023/08/16 13:06:38;;;;;;;3.88;1.50;;;;;;;;;;5011996;28;20036;-85
2023/08/16 13:09:06;;;;;;;2.58;1.30;;;;;;;;;;5026428;28;20137;-86
2023/08/16 13:11:32;;;;;;;3.42;1.70;;;;;;;;;;5008789;28;20037;-85
2023/08/16 13:13:57;;;;;;;2.78;1.30;;;;;;;;;;5013036;28;20034;-83
2023/08/16 13:16:22;;;;;;;3.28;1.45;;;;;;;;;;5017900;28;20022;-82
2023/08/16 13:18:48;;;;;;;2.00;1.30;;;;;;;;;;5005225;28;20537;-84
2023/08/16 13:21:13;;;;;;;4.78;1.30;;;;;;;;;;5012021;28;20029;-85
2023/08/16 13:23:39;;;;;;;3.45;1.35;;;;;;;;;;5013112;28;20018;-85
2023/08/16 13:26:04;;;;;;;3.58;1.10;;;;;;;;;;5014129;28;20022;-85
2023/08/16 13:28:30;;;;;;;1.88;1.08;;;;;;;;;;5007847;28;20057;-86
2023/08/16 13:30:56;;;;;;;2.85;1.08;;;;;;;;;;5010780;28;20125;-85
2023/08/16 13:33:21;;;;;;;2.97;1.35;;;;;;;;;;5006793;28;20100;-86
2023/08/16 13:35:47;;;;;;;2.65;1.30;;;;;;;;;;5001391;28;20029;-86
2023/08/16 13:38:13;;;;;;;3.75;1.27;;;;;;;;;;5005462;28;20026;-85
2023/08/16 13:40:40;;;;;;;2.55;1.10;;;;;;;;;;5022751;28;20049;-86
2023/08/16 13:43:06;;;;;;;2.50;1.20;;;;;;;;;;5012519;28;20125;-86
2023/08/16 13:45:32;;;;;;;3.15;1.27;;;;;;;;;;5009711;28;20033;-85
2023/08/16 13:47:57;;;;;;;2.58;1.30;;;;;;;;;;5009536;28;20034;-86
2023/08/16 13:50:23;;;;;;;3.58;1.20;;;;;;;;;;5004907;28;20018;-84
2023/08/16 13:52:49;;;;;;;4.25;1.38;;;;;;;;;;5007069;28;20485;-77
2023/08/16 13:55:16;;;;;;;2.47;1.27;;;;;;;;;;5004580;28;20026;-77
2023/08/16 13:57:42;;;;;;;3.55;1.35;;;;;;;;;;5007200;28;20033;-77
2023/08/16 14:00:09;;;;;;;2.28;1.35;;;;;;;;;;4998376;28;20444;-77
2023/08/16 14:02:42;;;;;;;3.40;1.55;;;;;;;;;;5023750;28;20030;-77
2023/08/16 14:05:07;;;;;;;;;;;;;;;;;;5005502;28;20029;-77
2023/08/16 14:07:33;;;;;;;4.50;1.83;;;;;;;;;;5006126;28;20292;-77
2023/08/16 14:09:58;;;;;;;3.78;1.83;;;;;;;;;;5002645;28;20034;-77
2023/08/16 14:12:24;;;;;;;2.92;1.45;;;;;;;;;;5003224;28;20108;-79
2023/08/16 14:14:49;;;;;;;3.00;1.40;;;;;;;;;;4996514;28;20037;-80
2023/08/16 14:17:15;;;;;;;2.95;1.30;;;;;;;;;;5012945;28;20037;-79
2023/08/16 14:19:41;;;;;;;2.97;1.40;;;;;;;;;;5003633;28;20026;-78
2023/08/16 14:22:06;;;;;;;3.15;1.30;;;;;;;;;;5007070;28;20430;-78
2023/08/16 14:24:32;;;;;;;2.78;1.40;;;;;;;;;;5004276;28;20030;-79
2023/08/16 14:26:58;;;;;;;3.22;1.35;;;;;;;;;;5005870;28;20052;-78
2023/08/16 14:29:23;;;;;;;2.80;1.20;;;;;;;;;;5005318;28;20026;-80
2023/08/16 14:31:48;;;;;;;2.90;1.10;;;;;;;;;;5000039;28;20424;-78
2023/08/16 14:34:14;;;;;;;3.35;1.52;;;;;;;;;;5006309;28;20517;-78
2023/08/16 14:36:39;;;;;;;3.20;1.33;;;;;;;;;;5019234;28;20034;-78
2023/08/16 14:39:06;;;;;;;3.30;1.30;;;;;;;;;;5007784;28;20091;-79